createdAt,value
2022-08-16T00:03:15.920Z,94304
2022-08-16T00:06:41.203Z,94298
2022-08-16T00:10:06.475Z,94300
2022-08-16T00:13:31.743Z,94298
2022-08-16T00:16:58.389Z,94293
2022-08-16T00:20:22.306Z,94287
2022-08-16T00:23:47.663Z,94282
2022-08-16T00:27:12.946Z,94279
2022-08-16T00:30:38.222Z,94286
2022-08-16T00:34:04.458Z,94296
2022-08-16T00:37:56.453Z,94295
2022-08-16T00:40:54.139Z,94302
2022-08-16T00:44:19.425Z,94304
2022-08-16T00:47:48.867Z,94306
2022-08-16T00:51:09.833Z,94315
2022-08-16T00:54:35.127Z,94323
2022-08-16T00:58:00.844Z,94325
2022-08-16T01:01:25.677Z,94329
2022-08-16T01:05:04.583Z,94335
2022-08-16T01:08:34.966Z,94331
2022-08-16T01:11:51.823Z,94327
2022-08-16T01:15:06.771Z,94328
2022-08-16T01:18:39.599Z,94328
2022-08-16T01:21:57.353Z,94328
2022-08-16T01:25:22.591Z,94325
2022-08-16T01:28:47.914Z,94327
2022-08-16T01:32:13.133Z,94323
2022-08-16T01:35:38.397Z,94313
2022-08-16T01:39:03.724Z,94316
2022-08-16T01:42:28.971Z,94314
2022-08-16T01:45:57.516Z,94312
2022-08-16T01:49:19.475Z,94311
2022-08-16T01:52:45.911Z,94312
2022-08-16T01:56:23.564Z,94313
2022-08-16T01:59:35.294Z,94315
2022-08-16T02:03:00.546Z,94317
2022-08-16T02:06:34.010Z,94317
2022-08-16T02:09:56.757Z,94310
2022-08-16T02:13:16.375Z,94309
2022-08-16T02:16:41.647Z,94314
2022-08-16T02:20:08.803Z,94319
2022-08-16T02:23:32.181Z,94322
2022-08-16T02:26:57.426Z,94314
2022-08-16T02:30:36.193Z,94311
2022-08-16T02:33:49.098Z,94302
2022-08-16T02:37:13.271Z,94313
2022-08-16T02:40:38.534Z,94312
2022-08-16T02:44:03.806Z,94306
2022-08-16T02:47:29.061Z,94303
2022-08-16T02:51:04.276Z,94297
2022-08-16T02:54:19.612Z,94299
2022-08-16T02:57:54.246Z,94296
2022-08-16T03:01:12.706Z,94289
2022-08-16T03:04:41.626Z,94289
2022-08-16T03:08:00.700Z,94292
2022-08-16T03:11:25.951Z,94298
2022-08-16T03:14:51.215Z,94303
2022-08-16T03:18:18.576Z,94315
2022-08-16T03:21:41.743Z,94320
2022-08-16T03:25:07.197Z,94323
2022-08-16T03:28:32.262Z,94331
2022-08-16T03:31:57.517Z,94329
2022-08-16T03:35:22.755Z,94325
2022-08-16T03:38:48.024Z,94322
2022-08-16T03:42:19.599Z,94325
2022-08-16T03:45:38.523Z,94329
2022-08-16T03:49:03.800Z,94337
2022-08-16T03:52:29.992Z,94339
2022-08-16T03:55:54.326Z,94342
2022-08-16T03:59:19.589Z,94339
2022-08-16T04:02:44.857Z,94337
2022-08-16T04:06:10.125Z,94341
2022-08-16T04:09:38.037Z,94346
2022-08-16T04:13:04.093Z,94342
2022-08-16T04:16:26.846Z,94338
2022-08-16T04:19:51.674Z,94331
2022-08-16T04:23:16.451Z,94337
2022-08-16T04:26:45.931Z,94335
2022-08-16T04:30:07.200Z,94335
2022-08-16T04:33:34.990Z,94339
2022-08-16T04:36:57.529Z,94347
2022-08-16T04:40:25.088Z,94340
2022-08-16T04:43:48.022Z,94347
2022-08-16T04:47:21.321Z,94355
2022-08-16T04:50:40.568Z,94353
2022-08-16T04:54:03.796Z,94355
2022-08-16T04:57:30.048Z,94363
2022-08-16T05:00:54.334Z,94364
2022-08-16T05:04:20.147Z,94373
2022-08-16T05:07:58.140Z,94373
2022-08-16T05:11:10.097Z,94374
2022-08-16T05:14:46.215Z,94374
2022-08-16T05:18:03.601Z,94370
2022-08-16T05:21:26.941Z,94383
2022-08-16T05:24:54.829Z,94386
2022-08-16T05:28:16.602Z,94394
2022-08-16T05:31:44.359Z,94387
2022-08-16T05:35:07.114Z,94389
2022-08-16T05:38:39.123Z,94390
2022-08-16T05:41:57.631Z,94388
2022-08-16T05:45:23.844Z,94389
2022-08-16T05:48:54.782Z,94394
2022-08-16T05:52:17.379Z,94396
2022-08-16T05:55:40.732Z,94399
2022-08-16T05:59:03.821Z,94398
2022-08-16T06:02:29.213Z,94396
2022-08-16T06:05:54.699Z,94398
2022-08-16T06:09:19.660Z,94403
2022-08-16T06:12:44.900Z,94411
2022-08-16T06:16:17.935Z,94408
2022-08-16T06:19:35.647Z,94409
2022-08-16T06:23:03.764Z,94414
2022-08-16T06:26:34.635Z,94408
2022-08-16T06:29:51.324Z,94408
2022-08-16T06:33:19.576Z,94410
2022-08-16T06:36:41.871Z,94407
2022-08-16T06:40:12.408Z,94411
2022-08-16T06:43:32.493Z,94409
2022-08-16T06:46:57.804Z,94415
2022-08-16T06:50:29.024Z,94412
2022-08-16T06:53:48.309Z,94419
2022-08-16T06:57:16.597Z,94414
2022-08-16T07:00:38.927Z,94419
2022-08-16T07:04:04.261Z,94421
2022-08-16T07:07:33.934Z,94439
2022-08-16T07:10:54.823Z,94439
2022-08-16T07:14:25.428Z,94441
2022-08-16T07:17:45.410Z,94437
2022-08-16T07:21:10.636Z,94439
2022-08-16T07:24:35.940Z,94443
2022-08-16T07:28:01.184Z,94440
2022-08-16T07:31:37.415Z,94437
2022-08-16T07:34:52.314Z,94441
2022-08-16T07:38:17.299Z,94450
2022-08-16T07:41:42.359Z,94448
2022-08-16T07:45:10.247Z,94452
2022-08-16T07:48:32.983Z,94454
2022-08-16T07:51:58.263Z,94455
2022-08-16T07:55:23.533Z,94467
2022-08-16T07:58:48.825Z,94463
2022-08-16T08:02:14.107Z,94456
2022-08-16T08:05:39.449Z,94457
2022-08-16T08:09:04.748Z,94459
2022-08-16T08:12:31.657Z,94454
2022-08-16T08:15:55.330Z,94459
2022-08-16T08:19:20.883Z,94458
2022-08-16T08:22:45.835Z,94449
2022-08-16T08:26:16.979Z,94455
2022-08-16T08:29:37.022Z,94458
2022-08-16T08:33:01.893Z,94453
2022-08-16T08:36:33.371Z,94458
2022-08-16T08:39:53.510Z,94458
2022-08-16T08:43:17.899Z,94469
2022-08-16T08:46:42.845Z,94469
2022-08-16T08:50:08.113Z,94477
2022-08-16T08:53:33.383Z,94476
2022-08-16T08:56:58.671Z,94473
2022-08-16T09:00:26.763Z,94478
2022-08-16T09:03:49.358Z,94483
2022-08-16T09:07:14.490Z,94474
2022-08-16T09:10:40.862Z,94477
2022-08-16T09:14:05.096Z,94475
2022-08-16T09:17:49.369Z,94473
2022-08-16T09:20:59.762Z,94467
2022-08-16T09:24:47.080Z,94464
2022-08-16T09:27:46.867Z,94463
2022-08-16T09:31:11.493Z,94474
2022-08-16T09:34:36.723Z,94474
2022-08-16T09:38:02.043Z,94480
2022-08-16T09:41:28.016Z,94470
2022-08-16T09:45:09.934Z,94461
2022-08-16T09:48:34.636Z,94459
2022-08-16T09:51:43.150Z,94465
2022-08-16T09:55:08.449Z,94469
2022-08-16T09:58:37.620Z,94458
2022-08-16T10:01:58.988Z,94461
2022-08-16T10:05:24.271Z,94460
2022-08-16T10:09:04.106Z,94457
2022-08-16T10:12:17.771Z,94456
2022-08-16T10:15:40.114Z,94463
2022-08-16T10:19:06.864Z,94457
2022-08-16T10:22:30.665Z,94457
2022-08-16T10:27:00.116Z,94449
2022-08-16T10:29:21.236Z,94447
2022-08-16T10:32:46.477Z,94448
2022-08-16T10:36:12.092Z,94452
2022-08-16T10:39:41.203Z,94450
2022-08-16T10:43:02.321Z,94455
2022-08-16T10:46:33.931Z,94452
2022-08-16T10:49:52.855Z,94459
2022-08-16T10:53:18.121Z,94457
2022-08-16T10:56:44.430Z,94454
2022-08-16T11:00:21.537Z,94457
2022-08-16T11:03:42.720Z,94460
2022-08-16T11:07:08.097Z,94463
2022-08-16T11:13:58.592Z,94467
2022-08-16T11:17:14.971Z,94458
2022-08-16T11:20:41.008Z,94463
2022-08-16T11:24:39.354Z,94467
2022-08-16T11:27:32.623Z,94470
2022-08-16T11:30:57.341Z,94468
2022-08-16T11:34:21.460Z,94471
2022-08-16T11:41:12.028Z,94470
2022-08-16T11:44:37.325Z,94474
2022-08-16T11:48:02.602Z,94480
2022-08-16T11:51:27.852Z,94478
2022-08-16T11:54:53.879Z,94485
2022-08-16T11:58:18.414Z,94483
2022-08-16T12:01:44.328Z,94482
2022-08-16T12:05:08.941Z,94468
2022-08-16T12:08:34.255Z,94474
2022-08-16T12:12:02.826Z,94470
2022-08-16T12:15:24.783Z,94471
2022-08-16T12:18:50.088Z,94471
2022-08-16T12:22:19.554Z,94472
2022-08-16T12:25:40.587Z,94467
2022-08-16T12:29:05.868Z,94467
2022-08-16T12:32:38.565Z,94468
2022-08-16T12:35:56.397Z,94463
2022-08-16T12:39:21.936Z,94458
2022-08-16T12:42:52.650Z,94467
2022-08-16T12:46:12.215Z,94469
2022-08-16T12:49:41.846Z,94463
2022-08-16T12:53:03.467Z,94461
2022-08-16T12:56:28.026Z,94462
2022-08-16T12:59:53.887Z,94465
2022-08-16T13:03:20.395Z,94471
2022-08-16T13:06:43.850Z,94465
2022-08-16T13:10:20.952Z,94463
2022-08-16T13:13:34.381Z,94457
2022-08-16T13:16:59.671Z,94455
2022-08-16T13:20:24.957Z,94454
2022-08-16T13:23:50.258Z,94456
2022-08-16T13:27:15.791Z,94453
2022-08-16T13:30:42.360Z,94456
2022-08-16T13:34:09.199Z,94456
2022-08-16T13:37:31.715Z,94457
2022-08-16T13:40:57.242Z,94460
2022-08-16T13:44:22.258Z,94463
2022-08-16T13:47:47.625Z,94462
2022-08-16T13:51:15.921Z,94463
2022-08-16T13:54:38.674Z,94458
2022-08-16T13:58:36.017Z,94463
2022-08-16T14:01:29.467Z,94454
2022-08-16T14:04:59.604Z,94462
2022-08-16T14:08:22.827Z,94458
2022-08-16T14:11:45.491Z,94463
2022-08-16T14:15:10.818Z,94459
2022-08-16T14:18:36.081Z,94469
2022-08-16T14:22:15.034Z,94467
2022-08-16T14:25:26.916Z,94471
2022-08-16T14:28:52.014Z,94469
2022-08-16T15:05:09.747Z,94476
2022-08-16T15:08:36.251Z,94472
2022-08-16T15:12:00.327Z,94482
2022-08-16T15:15:25.596Z,94475
2022-08-16T15:18:51.631Z,94478
2022-08-16T15:22:16.922Z,94478
2022-08-16T15:25:42.219Z,94476
2022-08-16T15:29:08.231Z,94483
2022-08-16T15:32:32.796Z,94486
2022-08-16T15:35:58.488Z,94486
2022-08-16T15:39:29.421Z,94485
2022-08-16T15:42:53.966Z,94488
2022-08-16T15:46:13.970Z,94485
2022-08-16T15:49:45.925Z,94486
2022-08-16T15:53:04.483Z,94481
2022-08-16T15:56:29.736Z,94475
2022-08-16T15:59:56.219Z,94475
2022-08-16T16:03:20.272Z,94475
2022-08-16T16:06:45.556Z,94479
2022-08-16T16:10:12.880Z,94472
2022-08-16T16:13:36.141Z,94473
2022-08-16T16:17:01.676Z,94474
2022-08-16T16:20:27.083Z,94473
2022-08-16T16:23:53.927Z,94465
2022-08-16T16:27:17.379Z,94465
2022-08-16T16:30:45.112Z,94464
2022-08-16T16:34:07.908Z,94464
2022-08-16T16:37:33.207Z,94461
2022-08-16T16:40:58.455Z,94461
2022-08-16T16:44:32.141Z,94466
2022-08-16T16:47:49.451Z,94465
2022-08-16T16:51:14.342Z,94468
2022-08-16T16:54:39.627Z,94474
2022-08-16T16:58:04.938Z,94479
2022-08-16T17:01:34.965Z,94481
2022-08-16T17:04:55.508Z,94485
2022-08-16T17:08:20.777Z,94484
2022-08-16T17:11:46.072Z,94494
2022-08-16T17:15:11.411Z,94492
2022-08-16T17:19:02.061Z,94489
2022-08-16T17:22:01.965Z,94490
2022-08-16T17:25:27.239Z,94489
2022-08-16T17:28:59.305Z,94491
2022-08-16T17:32:33.345Z,94488
2022-08-16T17:35:43.094Z,94493
2022-08-16T17:39:08.376Z,94491
2022-08-16T17:42:33.674Z,94492
2022-08-16T17:45:58.940Z,94496
2022-08-16T17:49:24.192Z,94496
2022-08-16T17:52:49.632Z,94494
2022-08-16T17:56:14.814Z,94494
2022-08-16T17:59:41.145Z,94499
2022-08-16T18:03:05.448Z,94501
2022-08-16T18:06:30.843Z,94511
2022-08-16T18:09:56.157Z,94510
2022-08-16T18:13:21.496Z,94510
2022-08-16T18:16:46.785Z,94508
2022-08-16T18:20:12.079Z,94511
2022-08-16T18:23:37.341Z,94516
2022-08-16T18:27:24.740Z,94515
2022-08-16T18:30:27.962Z,94519
2022-08-16T18:33:54.685Z,94526
2022-08-16T18:37:18.571Z,94530
2022-08-16T18:40:43.853Z,94538
2022-08-16T18:44:24.626Z,94537
2022-08-16T18:47:34.434Z,94530
2022-08-16T18:51:04.971Z,94532
2022-08-16T18:54:24.973Z,94537
2022-08-16T18:57:50.439Z,94533
2022-08-16T19:01:15.723Z,94536
2022-08-16T19:04:48.259Z,94540
2022-08-16T19:08:06.115Z,94543
2022-08-16T19:11:31.427Z,94548
2022-08-16T19:14:56.701Z,94554
2022-08-16T19:18:21.954Z,94561
2022-08-16T19:21:47.239Z,94557
2022-08-16T19:25:12.528Z,94560
2022-08-16T19:28:50.408Z,94562
2022-08-16T19:32:03.101Z,94567
2022-08-16T19:35:28.376Z,94565
2022-08-16T19:38:53.663Z,94567
2022-08-16T19:42:18.982Z,94571
2022-08-16T19:45:46.197Z,94572
2022-08-16T19:49:09.549Z,94577
2022-08-16T19:52:34.874Z,94574
2022-08-16T19:56:00.223Z,94571
2022-08-16T19:59:36.269Z,94572
2022-08-16T20:02:50.857Z,94568
2022-08-16T20:06:32.394Z,94573
2022-08-16T20:09:41.442Z,94569
2022-08-16T20:13:06.698Z,94567
2022-08-16T20:16:32.014Z,94569
2022-08-16T20:19:57.300Z,94572
2022-08-16T20:23:25.720Z,94579
2022-08-16T20:26:47.893Z,94581
2022-08-16T20:30:13.200Z,94595
2022-08-16T20:33:38.514Z,94596
2022-08-16T20:37:03.782Z,94596
2022-08-16T20:40:34.122Z,94597
2022-08-16T20:43:54.935Z,94600
2022-08-16T20:47:19.689Z,94599
2022-08-16T20:50:45.648Z,94598
2022-08-16T20:54:10.934Z,94600
2022-08-16T20:57:36.207Z,94608
2022-08-16T21:01:01.654Z,94605
2022-08-16T21:04:26.828Z,94601
2022-08-16T21:07:52.146Z,94599
2022-08-16T21:11:17.409Z,94609
2022-08-16T21:14:42.685Z,94611
2022-08-16T21:18:07.977Z,94612
2022-08-16T21:21:33.558Z,94618
2022-08-16T21:24:58.556Z,94620
2022-08-16T21:28:39.832Z,94618
2022-08-16T21:31:49.135Z,94618
2022-08-16T21:35:14.424Z,94621
2022-08-16T21:38:39.713Z,94618
2022-08-16T21:42:05.666Z,94621
2022-08-16T21:45:30.937Z,94620
2022-08-16T21:48:56.226Z,94615
2022-08-16T21:57:52.170Z,94620
2022-08-16T22:01:17.363Z,94626
2022-08-16T22:04:42.508Z,94618
2022-08-16T22:08:07.708Z,94615
2022-08-16T22:11:32.908Z,94615
2022-08-16T22:14:58.127Z,94627
2022-08-16T22:18:23.344Z,94625
2022-08-16T22:21:48.525Z,94620
2022-08-16T22:25:13.750Z,94617
2022-08-16T22:28:38.948Z,94615
2022-08-16T22:32:04.175Z,94617
2022-08-16T22:35:29.376Z,94619
2022-08-16T22:38:57.286Z,94626
2022-08-16T22:42:19.774Z,94625
2022-08-16T22:45:44.970Z,94620
2022-08-16T22:49:10.201Z,94625
2022-08-16T22:52:36.981Z,94618
2022-08-16T22:56:00.631Z,94623
2022-08-16T22:59:25.831Z,94614
2022-08-16T23:02:51.101Z,94613
2022-08-16T23:06:16.226Z,94611
2022-08-16T23:09:41.407Z,94604
2022-08-16T23:13:06.621Z,94603
2022-08-16T23:16:32.904Z,94600
2022-08-16T23:19:57.019Z,94601
2022-08-16T23:23:22.367Z,94597
2022-08-16T23:26:48.665Z,94595
2022-08-16T23:30:12.635Z,94595
2022-08-16T23:33:37.810Z,94592
2022-08-16T23:37:02.994Z,94587
2022-08-16T23:40:28.188Z,94590
2022-08-16T23:43:53.401Z,94594
2022-08-16T23:47:18.579Z,94595
2022-08-16T23:50:43.811Z,94592
2022-08-16T23:54:09.016Z,94593
2022-08-16T23:57:34.234Z,94591
